ADDS METAR Data INFO
IDs: Format: Raw Decoded Include TAF

Data at: 0034 UTC 23 Feb 2018

KMNZ 230015Z AUTO 00000KT 7SM BKN003 OVC010 03/03 A3021 RMK AO2 T00260026
KMNZ 222355Z AUTO 00000KT 5SM BR OVC003 03/03 A3021 RMK AO2 T00250025 10025 20014
KMNZ 222335Z AUTO 02003KT 2 1/2SM BR OVC003 03/03 A3020 RMK AO2 T00250025
KMNZ 222315Z AUTO 35005KT 2SM BR OVC003 02/02 A3021 RMK AO2 T00240024
KMNZ 222255Z AUTO 33007KT 1 3/4SM BR OVC003 03/03 A3021 RMK AO2 T00250025
KMNZ 222235Z AUTO 34008KT 2 1/2SM BR OVC003 02/02 A3020 RMK AO2 T00230023
KMNZ 222215Z AUTO 33007KT 3SM BR OVC003 02/02 A3021 RMK AO2 T00210021
KMNZ 222155Z AUTO 35008KT 2SM BR OVC003 02/02 A3020 RMK AO2 T00220022
KMNZ 222135Z AUTO 34007KT 2SM BR OVC003 02/02 A3021 RMK AO2 T00220022
KMNZ 222115Z AUTO 33007KT 1 1/2SM BR OVC003 02/02 A3021 RMK AO2 T00220022
KMNZ 222055Z AUTO 33009KT 1 1/2SM BR OVC003 02/02 A3021 RMK AO2 T00210021
KMNZ 222035Z AUTO 31008KT 1 1/4SM BR OVC003 02/02 A3021 RMK AO2 T00200020
KMNZ 222015Z AUTO 32011KT 1 1/2SM BR OVC003 02/02 A3022 RMK AO2 T00210021
KMNZ 221955Z AUTO 34008KT 1 1/2SM BR OVC003 02/02 A3022 RMK AO2 T00180018
KMNZ 221935Z AUTO 32008KT 1 1/2SM BR OVC003 02/02 A3022 RMK AO2 T00180018
KMNZ 221915Z AUTO 32008KT 1 1/4SM BR OVC003 02/02 A3024 RMK AO2 T00180018
KMNZ 221855Z AUTO 32008KT 1 1/2SM BR OVC003 02/02 A3024 RMK AO2 T00150015
KMNZ 221835Z AUTO 30007KT 1 1/2SM BR OVC003 02/02 A3026 RMK AO2 T00150015
KMNZ 221815Z AUTO 31007KT 1 1/4SM BR OVC003 01/01 A3026 RMK AO2 T00140014
KMNZ 221755Z AUTO 31005KT 1SM UP OVC003 02/02 A3027 RMK AO2 P0001 60008 T00150015 10015 21001
KMNZ 221735Z AUTO 33005KT 1SM BR OVC003 01/01 A3026 RMK AO2 P0001 T00120012
KMNZ 221715Z AUTO 33005KT 1 1/4SM BR OVC003 01/01 A3027 RMK AO2 T00100010
KMNZ 221655Z AUTO 32005KT 1 1/2SM BR OVC003 01/01 A3027 RMK AO2 LTG DSNT NE P0005 T00110011
KMNZ 221635Z AUTO 34005KT 1 3/4SM BR OVC003 01/01 A3027 RMK AO2 P0004 T00090009
KMNZ 221615Z AUTO 34006KT 2SM BR OVC003 01/01 A3027 RMK AO2 P0001 T00060006
KMNZ 221555Z AUTO 35004KT 2SM BR OVC003 01/01 A3027 RMK AO2 LTG DSNT NE P0001 T00060006
KMNZ 221535Z AUTO 33005KT 1 1/2SM BR OVC003 01/01 A3027 RMK AO2 LTG DSNT NE T00050005
KMNZ 221515Z AUTO 33004KT 1 1/4SM UP OVC003 01/01 A3027 RMK AO2 LTG DSNT NE T00050005
KMNZ 221455Z AUTO 35003KT 3SM BR OVC003 00/00 A3027 RMK AO2 LTG DSNT NE AND E T00030003
KMNZ 221435Z AUTO 33004KT 4SM VCTS BR OVC003 00/00 A3027 RMK AO2 LTG DSNT NE AND NW T00030003
KMNZ 221415Z AUTO 01005KT 3SM UP OVC003 00/00 A3025 RMK AO2 LTG DSNT NW THRU NE T00020002
KMNZ 221355Z AUTO 35005KT 2 1/2SM BR OVC003 00/00 A3025 RMK AO2 LTG DSNT NW THRU NE T00020002
KMNZ 221335Z AUTO 02004KT 5SM TSUP OVC003 00/00 A3024 RMK AO2 LTG DSNT NW THRU E T00010001
KMNZ 221315Z AUTO 35007KT 7SM -TSSN BKN003 BKN007 OVC016 00/00 A3024 RMK AO2 LTG DSNT ALQS T00020002
KMNZ 221255Z AUTO 33007KT 280V010 3/4SM -TSSN OVC003 00/00 A3028 RMK AO2 LTG DSNT ALQS T00010001
KMNZ 221235Z AUTO 31004KT 1 1/2SM -TSSN OVC003 00/00 A3028 RMK AO2 LTG DSNT ALQS T00000000
KMNZ 221215Z AUTO 36010KT 1 1/2SM TSUP OVC003 00/00 A3023 RMK AO2 LTG DSNT ALQS T00000000
KMNZ 221155Z AUTO 36008KT 1 1/2SM BR OVC003 00/00 A3023 RMK AO2 LTG DSNT E THRU SW 70096 T00000000 10000 21005
KMNZ 221135Z AUTO 36009KT 1 3/4SM BR OVC003 00/00 A3023 RMK AO2 LTG DSNT S T10011001
KMNZ 221115Z AUTO 36008KT 2SM BR OVC003 00/00 A3025 RMK AO2 T10011001
KMNZ 221055Z AUTO 01009KT 2SM BR OVC003 00/00 A3024 RMK AO2 T10021002
KMNZ 221035Z AUTO 36008KT 2SM BR OVC003 00/00 A3024 RMK AO2 T10021002
KMNZ 221015Z AUTO 36009KT 1 3/4SM BR OVC003 00/00 A3025 RMK AO2 T10021002
KMNZ 220955Z AUTO 35006KT 2SM BR OVC003 00/00 A3026 RMK AO2 T10021002
KMNZ 220935Z AUTO 35007KT 2SM BR OVC003 00/00 A3025 RMK AO2 T10051005
KMNZ 220915Z AUTO 36007KT 2SM BR OVC003 00/00 A3025 RMK AO2 T10031003
KMNZ 220855Z AUTO 35008KT 1 3/4SM BR OVC003 00/00 A3026 RMK AO2 T10031003
KMNZ 220835Z AUTO 35008KT 1 1/2SM BR OVC003 00/00 A3027 RMK AO2 T10031003
KMNZ 220815Z AUTO 35009KT 1 1/4SM BR OVC003 00/00 A3027 RMK AO2 T10031003
KMNZ 220755Z AUTO 35009KT 1 1/4SM BR OVC003 00/00 A3027 RMK AO2 T10051005
KMNZ 220735Z AUTO 35008KT 1 1/4SM BR OVC003 00/00 A3028 RMK AO2 T10051005
KMNZ 220715Z AUTO 34008KT 1 1/2SM BR OVC003 00/00 A3029 RMK AO2 T10021002
KMNZ 220655Z AUTO 35008KT 1 1/4SM BR OVC003 00/00 A3029 RMK AO2 LTG DSNT E T10051005
KMNZ 220635Z AUTO 35010KT 1SM BR OVC003 00/00 A3028 RMK AO2 T10021002
KMNZ 220615Z AUTO 34010KT 1SM BR OVC003 00/00 A3028 RMK AO2 T10041004
KMNZ 220555Z AUTO 35012G16KT 1SM BR OVC003 00/00 A3028 RMK AO2 T10021002 10017 21003 400571003
KMNZ 220535Z AUTO 36010KT 1SM BR OVC003 00/00 A3028 RMK AO2 T10021002
KMNZ 220515Z AUTO 35011KT 1 1/4SM BR OVC003 00/00 A3029 RMK AO2 T10011001
KMNZ 220455Z AUTO 34010KT 1SM BR OVC003 00/00 A3029 RMK AO2 T10011001
KMNZ 220435Z AUTO 35013KT 1 1/4SM BR OVC003 00/00 A3029 RMK AO2 T10011001
KMNZ 220415Z AUTO 35013KT 1 3/4SM BR OVC003 00/00 A3029 RMK AO2 T10011001
KMNZ 220355Z AUTO 35011KT 2 1/2SM BR OVC003 00/00 A3030 RMK AO2 LTG DSNT E T10011001
KMNZ 220035Z AUTO 33021G26KT 2SM BR OVC003 01/01 A3026 RMK AO2 LTG DSNT E AND SE T00120012
KMNZ 220015Z AUTO 33020G23KT 3SM BR OVC005 01/01 A3025 RMK AO2 LTG DSNT SE T00130013
KMNZ 212355Z AUTO 32018G22KT 3SM VCTS BR OVC005 02/02 A3026 RMK AO2 LTG DSNT E AND SE 60078 T00170017 10057 20004
KMNZ 212335Z AUTO 33015G20KT 5SM VCTS BR OVC003 02/02 A3024 RMK AO2 LTG DSNT E AND SE T00170017
KMNZ 212315Z AUTO 33016KT 10SM VCTS OVC003 02/02 A3024 RMK AO2 LTG DSNT E AND SE T00210021
KMNZ 212255Z AUTO 33014KT 10SM VCTS BKN003 OVC009 02/02 A3024 RMK AO2 LTG DSNT E THRU S P0001 T00220022
KMNZ 212235Z AUTO 33017KT 10SM -VCTSDZ BKN003 OVC009 02/02 A3022 RMK AO2 LTG DSNT E THRU S P0001 T00220022
KMNZ 212215Z AUTO 33015KT 7SM -RA OVC003 02/02 A3023 RMK AO2 LTG DSNT NE THRU S P0001 T00200020
KMNZ 212155Z AUTO 32014KT 10SM OVC003 02/02 A3021 RMK AO2 LTG DSNT NE THRU S P0003 T00230023
KMNZ 212135Z AUTO 33019G23KT 10SM -RA BKN005 OVC008 03/03 A3019 RMK AO2 LTG DSNT NE THRU S P0003 T00280028
KMNZ 212115Z AUTO 30014KT 7SM -RA OVC005 03/03 A3022 RMK AO2 LTG DSNT ALQS P0002 T00320032
KMNZ 212055Z AUTO 30018G23KT 10SM RA BKN003 OVC007 04/04 A3019 RMK AO2 LTG DSNT ALQS P0014 60074 T00440044
KMNZ 212035Z AUTO 07013G19KT 4SM -VCTSRA BKN003 BKN010 OVC028 05/05 A3011 RMK AO2 LTG DSNT ALQS P0013 T00530053
KMNZ 212015Z AUTO 08004KT 1 1/2SM -TSRA BKN003 OVC029 05/05 A3021 RMK AO2 LTG DSNT ALQS P0007 T00470047
KMNZ 211955Z AUTO 08012KT 3SM -TSSN BKN003 BKN011 OVC038 03/03 A3016 RMK AO2 LTG DSNT ALQS P0054 T00330033
KMNZ 211935Z AUTO 05013KT 1 1/4SM -TSRA BKN003 BKN012 OVC022 02/02 A3018 RMK AO2 LTG DSNT ALQS P0043 T00200020
KMNZ 211915Z AUTO 07015G20KT 1/2SM -TSSN BKN009 BKN017 OVC023 02/02 A3018 RMK AO2 LTG DSNT ALQS P0029 T00170017
KMNZ 211835Z AUTO 35013G17KT 10SM VCTSUP BKN007 OVC022 01/01 A3026 RMK AO2 LTG DSNT ALQS P0004 T00050005
KMNZ 211815Z AUTO 36016G25KT 2 1/2SM TSUP BKN007 OVC010 01/01 A3024 RMK AO2 LTG DSNT W THRU N P0002 T00050005
KMNZ 211755Z AUTO 35020G24KT 7SM VCTSUP BKN007 OVC017 00/00 A3027 RMK AO2 LTG DSNT W THRU NE 60018 T00030003 10012 20001
KMNZ 211735Z AUTO 34020G25KT 10SM TSUP OVC005 00/00 A3027 RMK AO2 LTG DSNT SW THRU N T00020002
KMNZ 211715Z AUTO 35016G23KT 10SM UP OVC005 01/01 A3026 RMK AO2 LTG DSNT SW THRU N T00050005
KMNZ 211655Z AUTO 35016G19KT 2 1/2SM -TSSN BKN005 OVC008 01/01 A3026 RMK AO2 LTG DSNT SW THRU N P0002 T00080008
KMNZ 211635Z AUTO 36015G25KT 1 3/4SM -SN OVC005 01/01 A3027 RMK AO2 LTG DSNT SW THRU N P0001 T00080008
KMNZ 211615Z AUTO 34018G23KT 2 1/2SM VCTSDZ OVC005 01/01 A3027 RMK AO2 LTG DSNT SW THRU N T00100010
KMNZ 211555Z AUTO 36012G21KT 10SM TS OVC003 01/01 A3024 RMK AO2 LTG DSNT SE THRU NW P0006 T00110011
KMNZ 211535Z AUTO 01014KT 1 3/4SM -VCTSSN OVC003 01/01 A3023 RMK AO2 LTG DSNT E W AND NW P0003 T00100010
KMNZ 211515Z AUTO 02016G20KT 10SM OVC005 01/01 A3021 RMK AO2 LTG DSNT SE AND W T00100010
KMNZ 211455Z AUTO 01016KT 10SM OVC005 01/01 A3021 RMK AO2 LTG DSNT SE AND W 60010 T00100010
KMNZ 211435Z AUTO 01013G17KT 10SM OVC005 01/01 A3021 RMK AO2 LTG DSNT SE AND SW T00100010
KMNZ 211415Z AUTO 03011KT 10SM OVC005 01/01 A3021 RMK AO2 LTG DSNT SE AND W T00080008
KMNZ 211355Z AUTO 01011G14KT 10SM OVC005 01/01 A3022 RMK AO2 T00100010
KMNZ 211335Z AUTO 36013KT 10SM OVC005 01/01 A3021 RMK AO2 T00100010
KMNZ 211315Z AUTO 36011G18KT 10SM OVC005 01/01 A3020 RMK AO2 LTG DSNT NW T00100010
KMNZ 211255Z AUTO 36012KT 10SM -SN OVC005 01/01 A3018 RMK AO2 P0010 T00100010